createdAt,value
2022-08-02T00:00:17.150Z,2.13
2022-08-02T00:02:46.474Z,2.08
2022-08-02T00:05:13.646Z,2.05
2022-08-02T00:07:41.331Z,2.40
2022-08-02T00:10:13.137Z,2.75
2022-08-02T00:12:44.469Z,3.03
2022-08-02T00:15:16.293Z,3.15
2022-08-02T00:17:46.480Z,3.03
2022-08-02T00:20:15.071Z,3.60
2022-08-02T00:22:43.917Z,3.30
2022-08-02T00:25:12.732Z,1.90
2022-08-02T00:27:44.012Z,2.65
2022-08-02T00:30:10.950Z,2.55
2022-08-02T00:32:37.375Z,2.50
2022-08-02T00:35:06.533Z,2.53
2022-08-02T00:37:32.907Z,2.10
2022-08-02T00:39:59.363Z,1.90
2022-08-02T00:42:26.419Z,2.20
2022-08-02T00:44:58.777Z,1.95
2022-08-02T00:47:25.209Z,1.85
2022-08-02T00:49:53.872Z,1.88
2022-08-02T00:52:20.284Z,2.17
2022-08-02T00:54:46.677Z,1.80
2022-08-02T00:57:13.114Z,1.90
2022-08-02T00:59:39.606Z,1.50
2022-08-02T01:02:06.090Z,1.73
2022-08-02T01:04:32.592Z,1.60
2022-08-02T01:07:12.741Z,1.65
2022-08-02T01:09:44.817Z,1.50
2022-08-02T01:12:12.263Z,1.92
2022-08-02T01:14:42.199Z,1.50
2022-08-02T01:17:32.946Z,1.58
2022-08-02T01:20:15.827Z,1.45
2022-08-02T01:23:04.292Z,1.90
2022-08-02T01:25:54.639Z,1.20
2022-08-02T01:28:33.117Z,1.40
2022-08-02T01:31:10.826Z,1.10
2022-08-02T01:33:42.234Z,1.50
2022-08-02T01:36:11.577Z,1.25
2022-08-02T01:38:40.307Z,1.50
2022-08-02T01:41:10.159Z,1.15
2022-08-02T01:43:40.634Z,1.33
2022-08-02T01:46:07.251Z,1.48
2022-08-02T01:48:36.944Z,1.10
2022-08-02T01:51:04.415Z,1.60
2022-08-02T01:53:34.558Z,1.42
2022-08-02T01:56:01.885Z,1.65
2022-08-02T01:58:31.653Z,1.50
2022-08-02T02:00:59.756Z,1.75
2022-08-02T02:03:27.476Z,1.70
2022-08-02T02:05:56.410Z,1.40
2022-08-02T02:08:37.840Z,1.23
2022-08-02T02:12:06.462Z,1.40
2022-08-02T02:13:58.655Z,1.50
2022-08-02T02:16:27.246Z,1.70
2022-08-02T02:18:56.064Z,1.58
2022-08-02T02:21:22.629Z,1.45
2022-08-02T02:23:51.349Z,1.70
2022-08-02T02:26:29.831Z,1.40
2022-08-02T02:29:00.992Z,1.75
2022-08-02T02:31:30.018Z,1.40
2022-08-02T02:34:00.314Z,1.50
2022-08-02T02:36:28.096Z,1.38
2022-08-02T02:38:57.488Z,1.70
2022-08-02T02:41:27.220Z,1.50
2022-08-02T02:43:58.685Z,1.40
2022-08-02T02:46:28.522Z,1.70
2022-08-02T02:48:55.510Z,1.25
2022-08-02T02:51:22.385Z,1.70
2022-08-02T02:54:33.644Z,1.30
2022-08-02T02:56:38.107Z,1.10
2022-08-02T02:59:07.589Z,1.33
2022-08-02T03:01:55.759Z,1.38
2022-08-02T03:04:24.924Z,1.30
2022-08-02T03:06:51.368Z,1.17
2022-08-02T03:09:17.884Z,1.20
2022-08-02T03:11:49.209Z,1.10
2022-08-02T03:14:18.255Z,1.50
2022-08-02T03:16:46.659Z,1.55
2022-08-02T03:19:13.936Z,1.30
2022-08-02T03:21:42.133Z,1.80
2022-08-02T03:24:08.937Z,1.20
2022-08-02T03:26:37.576Z,1.60
2022-08-02T03:29:10.900Z,1.30
2022-08-02T03:31:39.970Z,1.55
2022-08-02T03:34:08.468Z,1.40
2022-08-02T03:36:35.320Z,1.30
2022-08-02T03:39:04.036Z,1.42
2022-08-02T03:41:31.140Z,1.38
2022-08-02T03:43:58.550Z,1.48
2022-08-02T03:46:25.329Z,1.50
2022-08-02T03:48:52.686Z,1.30
2022-08-02T03:51:24.794Z,1.60
2022-08-02T03:53:54.088Z,1.42
2022-08-02T03:56:22.983Z,1.98
2022-08-02T03:59:05.610Z,1.83
2022-08-02T04:01:34.582Z,1.98
2022-08-02T04:04:06.142Z,1.70
2022-08-02T04:06:35.437Z,1.60
2022-08-02T04:09:06.859Z,1.98
2022-08-02T04:11:35.789Z,1.88
2022-08-02T04:14:06.558Z,1.85
2022-08-02T04:16:49.035Z,1.73
2022-08-02T04:19:20.450Z,1.50
2022-08-02T04:21:52.268Z,1.50
2022-08-02T04:24:32.540Z,2.00
2022-08-02T04:27:19.081Z,1.73
2022-08-02T04:29:49.103Z,1.45
2022-08-02T04:32:20.419Z,1.80
2022-08-02T04:35:17.667Z,1.55
2022-08-02T04:38:05.774Z,1.20
2022-08-02T04:40:31.555Z,2.50
2022-08-02T04:43:00.152Z,1.80
2022-08-02T04:45:27.240Z,1.80
2022-08-02T04:48:04.565Z,1.80
2022-08-02T04:50:34.565Z,1.60
2022-08-02T04:53:01.197Z,1.98
2022-08-02T04:55:30.560Z,2.15
2022-08-02T04:57:58.772Z,2.10
2022-08-02T05:00:29.068Z,2.08
2022-08-02T05:02:59.181Z,1.88
2022-08-02T05:05:28.374Z,1.60
2022-08-02T05:07:58.183Z,1.80
2022-08-02T05:10:24.957Z,1.95
2022-08-02T05:12:53.576Z,1.75
2022-08-02T05:15:20.183Z,1.80
2022-08-02T05:17:49.360Z,1.70
2022-08-02T05:20:17.330Z,1.48
2022-08-02T05:22:46.648Z,1.45
2022-08-02T05:25:13.466Z,1.77
2022-08-02T05:27:40.373Z,1.63
2022-08-02T05:30:08.055Z,1.38
2022-08-02T05:32:35.314Z,1.52
2022-08-02T05:35:02.498Z,1.45
2022-08-02T05:37:31.934Z,1.15
2022-08-02T05:40:01.416Z,1.83
2022-08-02T05:42:31.595Z,1.58
2022-08-02T05:45:05.409Z,1.60
2022-08-02T05:47:31.912Z,1.98
2022-08-02T05:49:58.764Z,1.40
2022-08-02T05:52:27.074Z,1.20
2022-08-02T05:54:53.468Z,1.70
2022-08-02T05:57:44.122Z,1.35
2022-08-02T06:00:13.300Z,1.55
2022-08-02T06:02:42.743Z,1.63
2022-08-02T06:05:22.677Z,1.85
2022-08-02T06:07:49.801Z,1.40
2022-08-02T06:10:21.566Z,1.50
2022-08-02T06:12:52.194Z,1.55
2022-08-02T06:15:19.676Z,1.60
2022-08-02T06:17:47.260Z,1.80
2022-08-02T06:20:15.477Z,1.80
2022-08-02T06:22:46.666Z,2.30
2022-08-02T06:25:51.104Z,1.60
2022-08-02T06:28:10.609Z,1.70
2022-08-02T06:30:38.305Z,2.10
2022-08-02T06:33:12.431Z,1.95
2022-08-02T06:35:41.862Z,1.75
2022-08-02T06:38:09.994Z,2.65
2022-08-02T06:40:43.421Z,2.13
2022-08-02T06:43:13.372Z,3.40
2022-08-02T06:45:40.397Z,3.60
2022-08-02T06:48:10.323Z,3.20
2022-08-02T06:50:41.966Z,2.40
2022-08-02T06:53:09.439Z,3.10
2022-08-02T06:55:44.093Z,3.22
2022-08-02T06:58:11.766Z,3.38
2022-08-02T07:00:40.598Z,3.03
2022-08-02T07:03:07.103Z,2.95
2022-08-02T07:05:37.445Z,2.58
2022-08-02T07:08:04.153Z,1.80
2022-08-02T07:10:30.653Z,2.47
2022-08-02T07:12:59.799Z,2.97
2022-08-02T07:15:26.538Z,1.67
2022-08-02T07:17:55.318Z,3.20
2022-08-02T07:20:21.789Z,1.88
2022-08-02T07:22:48.347Z,1.50
2022-08-02T07:25:14.871Z,2.40
2022-08-02T07:27:41.409Z,2.65
2022-08-02T07:30:08.520Z,1.90
2022-08-02T07:32:37.234Z,2.00
2022-08-02T07:35:07.689Z,2.58
2022-08-02T07:37:54.659Z,2.17
2022-08-02T07:40:25.080Z,1.20
2022-08-02T07:42:56.470Z,1.92
2022-08-02T07:45:26.541Z,2.08
2022-08-02T07:47:56.935Z,2.38
2022-08-02T07:50:28.201Z,2.42
2022-08-02T07:52:57.989Z,1.67
2022-08-02T07:55:25.421Z,1.38
2022-08-02T07:58:06.162Z,1.70
2022-08-02T08:00:37.760Z,1.45
2022-08-02T08:03:06.677Z,1.25
2022-08-02T08:05:33.169Z,1.50
2022-08-02T08:07:59.604Z,2.63
2022-08-02T08:10:26.080Z,2.08
2022-08-02T08:12:52.541Z,1.60
2022-08-02T08:15:21.319Z,1.67
2022-08-02T08:17:47.738Z,1.90
2022-08-02T08:20:15.972Z,1.38
2022-08-02T08:22:42.594Z,2.00
2022-08-02T08:25:09.369Z,1.52
2022-08-02T08:27:41.097Z,1.35
2022-08-02T08:30:08.337Z,1.85
2022-08-02T08:32:39.404Z,1.25
2022-08-02T08:35:08.491Z,1.85
2022-08-02T08:37:39.028Z,1.80
2022-08-02T08:40:08.962Z,1.63
2022-08-02T08:42:39.081Z,1.52
2022-08-02T08:45:09.454Z,1.77
2022-08-02T08:47:39.393Z,1.52
2022-08-02T08:50:17.863Z,1.50
2022-08-02T08:53:01.695Z,1.80
2022-08-02T08:55:29.749Z,1.63
2022-08-02T08:57:58.907Z,1.40
2022-08-02T09:00:27.627Z,1.30
2022-08-02T09:02:54.195Z,1.30
2022-08-02T09:05:20.631Z,1.20
2022-08-02T09:07:51.201Z,2.00
2022-08-02T09:10:42.543Z,1.65
2022-08-02T09:13:38.019Z,1.40
2022-08-02T09:16:11.137Z,1.40
2022-08-02T09:18:44.445Z,1.40
2022-08-02T09:21:11.843Z,1.58
2022-08-02T09:23:40.973Z,1.70
2022-08-02T09:26:14.228Z,2.10
2022-08-02T09:28:46.087Z,1.95
2022-08-02T09:31:14.796Z,2.25
2022-08-02T09:33:45.565Z,2.42
2022-08-02T09:36:16.844Z,1.92
2022-08-02T09:39:06.453Z,2.17
2022-08-02T09:41:35.005Z,2.25
2022-08-02T09:44:06.421Z,1.75
2022-08-02T09:46:37.648Z,1.83
2022-08-02T09:49:16.489Z,1.70
2022-08-02T09:51:49.311Z,2.00
2022-08-02T09:54:29.268Z,1.55
2022-08-02T09:56:57.894Z,1.60
2022-08-02T09:59:28.158Z,1.30
2022-08-02T10:02:01.847Z,1.70
2022-08-02T10:04:30.889Z,1.80
2022-08-02T10:07:03.744Z,1.80
2022-08-02T10:09:30.563Z,2.60
2022-08-02T10:12:03.591Z,1.98
2022-08-02T10:14:35.675Z,2.40
2022-08-02T10:17:05.494Z,2.13
2022-08-02T10:20:00.693Z,1.80
2022-08-02T10:22:24.724Z,2.10
2022-08-02T10:24:51.728Z,1.98
2022-08-02T10:27:20.597Z,1.50
2022-08-02T10:29:54.691Z,2.10
2022-08-02T10:32:31.679Z,1.70
2022-08-02T10:35:19.654Z,1.60
2022-08-02T10:37:56.509Z,1.60
2022-08-02T10:40:28.837Z,1.58
2022-08-02T10:42:59.412Z,1.40
2022-08-02T10:45:29.979Z,1.85
2022-08-02T10:48:07.736Z,1.45
2022-08-02T10:50:49.335Z,2.30
2022-08-02T10:53:24.629Z,1.98
2022-08-02T10:55:52.208Z,2.05
2022-08-02T10:58:29.739Z,2.08
2022-08-02T11:00:59.420Z,2.15
2022-08-02T11:03:28.983Z,1.90
2022-08-02T11:06:25.319Z,2.03
2022-08-02T11:09:33.382Z,2.35
2022-08-02T11:12:10.897Z,1.85
2022-08-02T11:14:42.384Z,1.60
2022-08-02T11:17:16.719Z,3.88
2022-08-02T11:20:13.533Z,4.60
2022-08-02T11:22:40.655Z,2.90
2022-08-02T11:25:22.212Z,2.28
2022-08-02T11:27:59.136Z,1.98
2022-08-02T11:30:27.277Z,1.65
2022-08-02T11:32:58.464Z,1.70
2022-08-02T11:35:41.359Z,1.60
2022-08-02T11:38:21.075Z,1.60
2022-08-02T11:40:48.453Z,2.00
2022-08-02T11:43:21.962Z,1.77
2022-08-02T11:45:53.596Z,1.70
2022-08-02T11:48:34.316Z,1.85
2022-08-02T11:51:11.117Z,1.88
2022-08-02T11:53:58.401Z,2.00
2022-08-02T11:56:32.612Z,2.00
2022-08-02T11:59:08.720Z,2.20
2022-08-02T12:01:45.104Z,2.03
2022-08-02T12:04:16.382Z,1.80
2022-08-02T12:06:43.703Z,1.88
2022-08-02T12:09:18.685Z,2.10
2022-08-02T12:11:48.873Z,1.90
2022-08-02T12:14:18.096Z,1.90
2022-08-02T12:17:03.669Z,1.83
2022-08-02T12:19:31.422Z,2.10
2022-08-02T12:22:42.122Z,1.80
2022-08-02T12:25:33.971Z,2.58
2022-08-02T12:28:17.326Z,3.03
2022-08-02T12:31:11.284Z,2.08
2022-08-02T12:33:49.749Z,2.58
2022-08-02T12:36:21.495Z,1.92
2022-08-02T12:38:55.568Z,2.45
2022-08-02T12:41:31.989Z,2.10
2022-08-02T12:44:01.916Z,2.20
2022-08-02T12:46:31.943Z,1.70
2022-08-02T12:49:18.479Z,2.20
2022-08-02T12:51:51.227Z,2.10
2022-08-02T12:54:32.116Z,1.90
2022-08-02T12:57:11.041Z,2.20
2022-08-02T12:59:39.658Z,1.90
2022-08-02T13:02:08.013Z,2.10
2022-08-02T13:04:37.314Z,1.75
2022-08-02T13:07:04.687Z,2.20
2022-08-02T13:09:39.104Z,2.10
2022-08-02T13:12:07.065Z,1.70
2022-08-02T13:14:41.027Z,2.13
2022-08-02T13:17:09.101Z,2.03
2022-08-02T13:19:38.949Z,1.88
2022-08-02T13:22:06.075Z,2.05
2022-08-02T13:24:41.053Z,2.28
2022-08-02T13:27:22.250Z,2.00
2022-08-02T13:29:53.317Z,2.28
2022-08-02T13:32:23.225Z,2.67
2022-08-02T13:34:49.787Z,2.65
2022-08-02T13:37:16.668Z,2.50
2022-08-02T13:39:55.317Z,2.35
2022-08-02T13:42:29.536Z,2.45
2022-08-02T13:44:55.980Z,1.83
2022-08-02T13:47:26.630Z,2.30
2022-08-02T13:50:06.809Z,1.92
2022-08-02T13:52:34.101Z,2.50
2022-08-02T13:55:03.039Z,2.08
2022-08-02T13:57:31.936Z,2.50
2022-08-02T13:59:59.387Z,2.20
2022-08-02T14:02:28.191Z,2.25
2022-08-02T14:04:59.683Z,1.90
2022-08-02T14:07:30.989Z,2.53
2022-08-02T14:09:57.460Z,2.10
2022-08-02T14:12:26.364Z,2.10
2022-08-02T14:14:52.837Z,2.38
2022-08-02T14:17:19.285Z,2.22
2022-08-02T14:19:45.741Z,2.40
2022-08-02T14:22:16.989Z,2.10
2022-08-02T14:24:45.959Z,2.05
2022-08-02T14:27:22.295Z,2.75
2022-08-02T14:29:51.263Z,4.13
2022-08-02T14:32:17.810Z,5.72
2022-08-02T14:34:46.580Z,2.55
2022-08-02T14:37:14.996Z,1.83
2022-08-02T14:39:43.284Z,1.92
2022-08-02T14:42:26.312Z,2.10
2022-08-02T14:44:52.763Z,2.47
2022-08-02T14:47:19.169Z,2.50
2022-08-02T14:49:50.333Z,1.90
2022-08-02T14:52:19.794Z,1.95
2022-08-02T14:54:48.638Z,2.70
2022-08-02T14:57:17.265Z,2.00
2022-08-02T14:59:47.177Z,2.65
2022-08-02T15:02:16.176Z,2.30
2022-08-02T15:04:43.821Z,2.30
2022-08-02T15:07:11.209Z,2.40
2022-08-02T15:09:39.887Z,1.75
2022-08-02T15:12:07.531Z,2.60
2022-08-02T15:14:33.952Z,2.65
2022-08-02T15:17:00.500Z,2.28
2022-08-02T15:19:51.205Z,2.15
2022-08-02T15:22:19.719Z,1.67
2022-08-02T15:24:48.941Z,2.03
2022-08-02T15:27:20.227Z,2.10
2022-08-02T15:29:47.667Z,2.17
2022-08-02T15:32:18.370Z,2.50
2022-08-02T15:34:45.308Z,2.33
2022-08-02T15:37:13.877Z,2.00
2022-08-02T15:39:45.218Z,2.28
2022-08-02T15:42:12.053Z,2.03
2022-08-02T15:44:38.842Z,2.28
2022-08-02T15:47:07.922Z,1.90
2022-08-02T15:49:41.589Z,1.85
2022-08-02T15:52:11.411Z,1.77
2022-08-02T15:54:40.155Z,2.10
2022-08-02T15:57:06.825Z,2.38
2022-08-02T15:59:33.308Z,2.10
2022-08-02T16:01:59.867Z,2.20
2022-08-02T16:04:28.758Z,2.70
2022-08-02T16:06:55.186Z,2.30
2022-08-02T16:09:21.628Z,2.10
2022-08-02T16:11:48.107Z,2.10
2022-08-02T16:14:14.512Z,1.80
2022-08-02T16:16:41.087Z,1.98
2022-08-02T16:19:46.798Z,1.83
2022-08-02T16:21:54.381Z,1.90
2022-08-02T16:24:21.278Z,2.15
2022-08-02T16:26:50.132Z,2.25
2022-08-02T16:29:19.387Z,1.95
2022-08-02T16:31:49.282Z,1.98
2022-08-02T16:34:20.468Z,1.75
2022-08-02T16:36:46.924Z,1.85
2022-08-02T16:39:13.446Z,1.80
2022-08-02T16:41:52.227Z,1.58
2022-08-02T16:44:29.210Z,1.50
2022-08-02T16:47:01.205Z,1.73
2022-08-02T16:50:07.081Z,1.80
2022-08-02T16:52:15.078Z,2.05
2022-08-02T16:54:44.309Z,1.70
2022-08-02T16:57:10.961Z,1.40
2022-08-02T16:59:50.108Z,1.52
2022-08-02T17:02:25.579Z,1.60
2022-08-02T17:04:52.235Z,1.85
2022-08-02T17:08:08.530Z,2.13
2022-08-02T17:10:08.181Z,2.35
2022-08-02T17:12:38.944Z,1.80
2022-08-02T17:15:47.053Z,1.95
2022-08-02T17:17:58.321Z,1.90
2022-08-02T17:20:24.804Z,2.15
2022-08-02T17:22:51.776Z,1.77
2022-08-02T17:25:21.688Z,1.50
2022-08-02T17:27:52.949Z,1.70
2022-08-02T17:30:26.499Z,1.63
2022-08-02T17:32:57.598Z,1.70
2022-08-02T17:35:43.264Z,1.90
2022-08-02T17:38:18.109Z,1.75
2022-08-02T17:40:55.846Z,1.80
2022-08-02T17:43:22.395Z,1.95
2022-08-02T17:46:00.198Z,1.95
2022-08-02T17:49:05.704Z,1.50
2022-08-02T17:52:48.013Z,1.85
2022-08-02T17:54:20.921Z,1.60
2022-08-02T17:56:48.468Z,1.92
2022-08-02T17:59:22.346Z,1.65
2022-08-02T18:02:03.567Z,1.60
2022-08-02T18:04:33.309Z,1.52
2022-08-02T18:09:51.993Z,1.55
2022-08-02T18:12:22.147Z,1.42
2022-08-02T18:14:49.375Z,1.65
2022-08-02T18:17:19.107Z,1.33
2022-08-02T18:19:57.207Z,1.40
2022-08-02T18:22:30.111Z,1.30
2022-08-02T18:24:56.625Z,1.42
2022-08-02T18:27:23.060Z,1.30
2022-08-02T18:30:00.114Z,1.30
2022-08-02T18:33:58.139Z,1.60
2022-08-02T18:35:20.405Z,1.35
2022-08-02T18:37:56.786Z,1.40
2022-08-02T18:40:29.750Z,1.50
2022-08-02T18:42:59.047Z,1.35
2022-08-02T18:46:04.520Z,1.67
2022-08-02T18:48:18.333Z,1.63
2022-08-02T18:50:47.271Z,1.55
2022-08-02T18:53:14.169Z,1.40
2022-08-02T18:55:59.954Z,1.60
2022-08-02T18:58:27.054Z,1.33
2022-08-02T19:00:59.201Z,2.05
2022-08-02T19:03:28.197Z,1.50
2022-08-02T19:05:57.194Z,1.58
2022-08-02T19:08:25.367Z,1.45
2022-08-02T19:10:56.123Z,1.40
2022-08-02T19:13:23.972Z,1.58
2022-08-02T19:15:52.937Z,1.60
2022-08-02T19:18:19.359Z,1.25
2022-08-02T19:20:57.106Z,1.60
2022-08-02T19:23:29.573Z,1.17
2022-08-02T19:25:56.494Z,1.50
2022-08-02T19:28:26.382Z,1.70
2022-08-02T19:30:53.763Z,1.60
2022-08-02T19:33:54.692Z,1.98
2022-08-02T19:36:09.721Z,1.60
2022-08-02T19:38:43.433Z,1.60
2022-08-02T19:41:13.561Z,1.88
2022-08-02T19:44:24.600Z,1.48
2022-08-02T19:46:31.204Z,1.75
2022-08-02T19:49:01.255Z,1.75
2022-08-02T19:51:54.848Z,1.80
2022-08-02T19:54:35.810Z,1.60
2022-08-02T19:57:13.809Z,1.50
2022-08-02T19:59:45.833Z,1.70
2022-08-02T20:02:13.331Z,1.48
2022-08-02T20:04:40.026Z,1.30
2022-08-02T20:07:07.186Z,1.90
2022-08-02T20:09:46.843Z,1.73
2022-08-02T20:12:16.634Z,2.10
2022-08-02T20:14:51.181Z,1.67
2022-08-02T20:17:20.685Z,1.98
2022-08-02T20:19:49.886Z,1.88
2022-08-02T20:22:18.773Z,1.67
2022-08-02T20:27:31.910Z,1.45
2022-08-02T20:29:58.419Z,2.15
2022-08-02T20:32:27.556Z,1.95
2022-08-02T20:34:55.075Z,1.73
2022-08-02T20:37:59.305Z,1.80
2022-08-02T20:40:16.802Z,1.60
2022-08-02T20:42:44.366Z,1.80
2022-08-02T20:45:14.270Z,1.65
2022-08-02T20:47:49.644Z,1.38
2022-08-02T20:50:36.244Z,1.50
2022-08-02T20:53:04.283Z,1.60
2022-08-02T20:55:31.907Z,1.40
2022-08-02T20:58:01.852Z,1.83
2022-08-02T21:00:29.713Z,1.48
2022-08-02T21:02:56.264Z,1.58
2022-08-02T21:08:14.729Z,1.90
2022-08-02T21:10:50.282Z,1.60
2022-08-02T21:13:23.096Z,1.50
2022-08-02T21:15:51.354Z,1.58
2022-08-02T21:18:27.697Z,2.10
2022-08-02T21:21:00.809Z,1.70
2022-08-02T21:23:29.299Z,1.70
2022-08-02T21:25:57.877Z,1.55
2022-08-02T21:28:43.817Z,1.48
2022-08-02T21:31:15.351Z,1.50
2022-08-02T21:33:57.040Z,1.67
2022-08-02T21:39:18.964Z,2.00
2022-08-02T21:41:49.277Z,1.90
2022-08-02T21:44:16.727Z,1.45
2022-08-02T21:46:45.087Z,1.83
2022-08-02T21:49:14.612Z,1.83
2022-08-02T21:51:48.910Z,1.70
2022-08-02T21:54:20.188Z,1.73
2022-08-02T21:56:52.091Z,1.58
2022-08-02T21:59:25.922Z,1.60
2022-08-02T22:01:56.893Z,1.70
2022-08-02T22:04:24.485Z,1.55
2022-08-02T22:06:53.913Z,1.95
2022-08-02T22:09:43.917Z,1.63
2022-08-02T22:12:16.957Z,1.80
2022-08-02T22:14:49.761Z,1.35
2022-08-02T22:17:50.429Z,1.60
2022-08-02T22:20:15.531Z,1.60
2022-08-02T22:22:50.223Z,1.40
2022-08-02T22:25:26.616Z,1.33
2022-08-02T22:28:36.456Z,1.70
2022-08-02T22:30:52.453Z,1.83
2022-08-02T22:33:38.049Z,1.50
2022-08-02T22:36:04.815Z,1.55
2022-08-02T22:38:31.247Z,1.20
2022-08-02T22:40:57.817Z,1.52
2022-08-02T22:43:26.570Z,1.80
2022-08-02T22:45:57.972Z,1.50
2022-08-02T22:48:24.885Z,1.13
2022-08-02T22:50:51.459Z,1.52
2022-08-02T22:53:18.317Z,1.23
2022-08-02T22:55:51.373Z,1.60
2022-08-02T22:58:18.046Z,1.40
2022-08-02T22:58:43.168Z,1.70
2022-08-02T22:58:55.406Z,1.60
2022-08-02T22:59:06.251Z,1.67
2022-08-02T22:59:10.362Z,1.83
2022-08-02T23:00:46.204Z,1.70
2022-08-02T23:03:12.788Z,1.55
2022-08-02T23:05:41.844Z,1.80
2022-08-02T23:08:08.463Z,1.65
2022-08-02T23:10:35.095Z,1.48
2022-08-02T23:13:01.640Z,1.95
2022-08-02T23:15:50.458Z,1.70
2022-08-02T23:18:35.648Z,1.50
2022-08-02T23:21:02.353Z,1.98
2022-08-02T23:23:29.104Z,1.60
2022-08-02T23:25:55.891Z,1.73
2022-08-02T23:28:27.343Z,1.42
2022-08-02T23:30:56.333Z,1.33
2022-08-02T23:33:27.663Z,1.60
2022-08-02T23:35:56.309Z,1.98
2022-08-02T23:38:27.361Z,1.40
2022-08-02T23:40:53.918Z,1.40
2022-08-02T23:43:20.540Z,1.50
2022-08-02T23:45:47.403Z,1.35
2022-08-02T23:48:18.446Z,1.50
2022-08-02T23:50:45.174Z,1.50
2022-08-02T23:53:11.833Z,1.30
2022-08-02T23:55:38.309Z,1.48
2022-08-02T23:58:04.838Z,1.80
